sensor_id;sensor_type;location;lat;lon;timestamp;pressure;altitude;pressure_sealevel;temperature;humidity
20624;BME280;10471;42.736;23.346;2023-07-09T00:01:17;95945.53;;;18.11;100.00
20624;BME280;10471;42.736;23.346;2023-07-09T00:03:43;95938.28;;;18.11;100.00
20624;BME280;10471;42.736;23.346;2023-07-09T00:06:09;95943.81;;;18.15;100.00
20624;BME280;10471;42.736;23.346;2023-07-09T00:08:35;95934.72;;;18.16;100.00
20624;BME280;10471;42.736;23.346;2023-07-09T00:11:03;95939.88;;;18.12;100.00
20624;BME280;10471;42.736;23.346;2023-07-09T00:13:28;95933.28;;;18.10;100.00
20624;BME280;10471;42.736;23.346;2023-07-09T00:16:00;95937.22;;;18.12;100.00
20624;BME280;10471;42.736;23.346;2023-07-09T00:18:26;95935.16;;;18.09;100.00
20624;BME280;10471;42.736;23.346;2023-07-09T00:20:51;95931.06;;;18.03;100.00
20624;BME280;10471;42.736;23.346;2023-07-09T00:23:17;95923.97;;;17.99;100.00
20624;BME280;10471;42.736;23.346;2023-07-09T00:25:45;95930.88;;;18.00;100.00
20624;BME280;10471;42.736;23.346;2023-07-09T00:28:18;95930.25;;;18.03;100.00
20624;BME280;10471;42.736;23.346;2023-07-09T00:30:44;95934.16;;;17.97;100.00
20624;BME280;10471;42.736;23.346;2023-07-09T00:33:11;95937.44;;;17.94;100.00
20624;BME280;10471;42.736;23.346;2023-07-09T00:35:44;95932.88;;;17.94;100.00
20624;BME280;10471;42.736;23.346;2023-07-09T00:38:18;95932.75;;;17.99;100.00
20624;BME280;10471;42.736;23.346;2023-07-09T00:40:59;95937.78;;;18.01;100.00
20624;BME280;10471;42.736;23.346;2023-07-09T00:43:30;95937.63;;;17.97;100.00
20624;BME280;10471;42.736;23.346;2023-07-09T00:48:49;95929.88;;;17.35;100.00
20624;BME280;10471;42.736;23.346;2023-07-09T00:51:18;95929.78;;;17.05;100.00
20624;BME280;10471;42.736;23.346;2023-07-09T00:53:46;95932.41;;;16.83;100.00
20624;BME280;10471;42.736;23.346;2023-07-09T00:56:20;95931.03;;;16.72;100.00
20624;BME280;10471;42.736;23.346;2023-07-09T00:58:51;95929.00;;;16.69;100.00
20624;BME280;10471;42.736;23.346;2023-07-09T01:01:18;95935.22;;;16.51;100.00
20624;BME280;10471;42.736;23.346;2023-07-09T01:03:45;95920.16;;;16.34;100.00
20624;BME280;10471;42.736;23.346;2023-07-09T01:06:13;95928.31;;;16.24;100.00
20624;BME280;10471;42.736;23.346;2023-07-09T01:08:40;95931.34;;;16.04;100.00
20624;BME280;10471;42.736;23.346;2023-07-09T01:11:16;95921.41;;;15.82;100.00
20624;BME280;10471;42.736;23.346;2023-07-09T01:13:49;95925.22;;;15.76;100.00
20624;BME280;10471;42.736;23.346;2023-07-09T01:16:18;95925.13;;;15.68;100.00
20624;BME280;10471;42.736;23.346;2023-07-09T01:18:44;95925.72;;;15.65;100.00
20624;BME280;10471;42.736;23.346;2023-07-09T01:21:10;95920.19;;;15.62;100.00
20624;BME280;10471;42.736;23.346;2023-07-09T01:23:41;95914.75;;;15.53;100.00
20624;BME280;10471;42.736;23.346;2023-07-09T01:26:10;95915.63;;;15.49;100.00
20624;BME280;10471;42.736;23.346;2023-07-09T01:28:37;95915.78;;;15.39;100.00
20624;BME280;10471;42.736;23.346;2023-07-09T01:31:02;95920.03;;;15.40;100.00
20624;BME280;10471;42.736;23.346;2023-07-09T01:33:30;95912.28;;;15.43;100.00
20624;BME280;10471;42.736;23.346;2023-07-09T01:35:55;95913.72;;;15.36;100.00
20624;BME280;10471;42.736;23.346;2023-07-09T01:38:26;95916.94;;;15.33;100.00
20624;BME280;10471;42.736;23.346;2023-07-09T01:40:58;95915.19;;;15.28;100.00
20624;BME280;10471;42.736;23.346;2023-07-09T01:43:24;95911.25;;;15.26;100.00
20624;BME280;10471;42.736;23.346;2023-07-09T01:45:52;95912.38;;;15.20;100.00
20624;BME280;10471;42.736;23.346;2023-07-09T01:48:18;95923.00;;;15.20;100.00
20624;BME280;10471;42.736;23.346;2023-07-09T01:50:46;95932.63;;;15.16;100.00
20624;BME280;10471;42.736;23.346;2023-07-09T01:53:12;95925.28;;;15.08;100.00
20624;BME280;10471;42.736;23.346;2023-07-09T01:55:39;95925.59;;;15.07;100.00
20624;BME280;10471;42.736;23.346;2023-07-09T01:58:05;95928.03;;;15.03;100.00
20624;BME280;10471;42.736;23.346;2023-07-09T02:00:32;95929.47;;;14.96;100.00
20624;BME280;10471;42.736;23.346;2023-07-09T02:02:59;95931.06;;;14.97;100.00
20624;BME280;10471;42.736;23.346;2023-07-09T02:05:28;95926.38;;;14.89;100.00
20624;BME280;10471;42.736;23.346;2023-07-09T02:07:54;95926.66;;;14.87;100.00
20624;BME280;10471;42.736;23.346;2023-07-09T02:10:20;95921.88;;;14.89;100.00
20624;BME280;10471;42.736;23.346;2023-07-09T02:12:46;95929.25;;;14.92;100.00
20624;BME280;10471;42.736;23.346;2023-07-09T02:15:11;95930.91;;;14.88;100.00
20624;BME280;10471;42.736;23.346;2023-07-09T02:17:37;95930.91;;;14.88;100.00
20624;BME280;10471;42.736;23.346;2023-07-09T02:20:03;95927.75;;;14.86;100.00
20624;BME280;10471;42.736;23.346;2023-07-09T02:22:30;95925.16;;;14.81;100.00
20624;BME280;10471;42.736;23.346;2023-07-09T02:24:56;95919.84;;;14.81;100.00
20624;BME280;10471;42.736;23.346;2023-07-09T02:27:21;95927.81;;;14.81;100.00
20624;BME280;10471;42.736;23.346;2023-07-09T02:29:47;95933.19;;;14.76;100.00
20624;BME280;10471;42.736;23.346;2023-07-09T02:32:17;95936.50;;;14.68;100.00
20624;BME280;10471;42.736;23.346;2023-07-09T02:34:42;95938.66;;;14.66;100.00
20624;BME280;10471;42.736;23.346;2023-07-09T02:37:08;95935.38;;;14.74;100.00
20624;BME280;10471;42.736;23.346;2023-07-09T02:39:33;95942.03;;;14.72;100.00
20624;BME280;10471;42.736;23.346;2023-07-09T02:41:59;95942.81;;;14.72;100.00
20624;BME280;10471;42.736;23.346;2023-07-09T02:44:24;95940.22;;;14.67;100.00
20624;BME280;10471;42.736;23.346;2023-07-09T02:46:49;95961.59;;;14.57;100.00
20624;BME280;10471;42.736;23.346;2023-07-09T02:49:15;95951.97;;;14.61;100.00
20624;BME280;10471;42.736;23.346;2023-07-09T02:51:41;95960.13;;;14.46;100.00
20624;BME280;10471;42.736;23.346;2023-07-09T02:54:07;95957.53;;;14.42;100.00
20624;BME280;10471;42.736;23.346;2023-07-09T02:56:32;95961.63;;;14.34;100.00
20624;BME280;10471;42.736;23.346;2023-07-09T02:58:58;95955.56;;;14.29;100.00
20624;BME280;10471;42.736;23.346;2023-07-09T03:01:24;95968.63;;;14.25;100.00
20624;BME280;10471;42.736;23.346;2023-07-09T03:03:53;95963.59;;;14.24;100.00
20624;BME280;10471;42.736;23.346;2023-07-09T03:06:23;95969.63;;;14.29;100.00
20624;BME280;10471;42.736;23.346;2023-07-09T03:08:49;95969.56;;;14.34;100.00
20624;BME280;10471;42.736;23.346;2023-07-09T03:11:16;95975.59;;;14.40;100.00
20624;BME280;10471;42.736;23.346;2023-07-09T03:13:41;95976.03;;;14.46;100.00
20624;BME280;10471;42.736;23.346;2023-07-09T03:16:07;95966.44;;;14.50;100.00
20624;BME280;10471;42.736;23.346;2023-07-09T03:18:32;95968.47;;;14.58;100.00
20624;BME280;10471;42.736;23.346;2023-07-09T03:20:58;95974.78;;;14.62;100.00
20624;BME280;10471;42.736;23.346;2023-07-09T03:23:24;95971.28;;;14.67;100.00
20624;BME280;10471;42.736;23.346;2023-07-09T03:25:49;95972.00;;;14.72;100.00
20624;BME280;10471;42.736;23.346;2023-07-09T03:28:15;95977.00;;;14.74;100.00
20624;BME280;10471;42.736;23.346;2023-07-09T03:30:42;95971.94;;;14.77;100.00
20624;BME280;10471;42.736;23.346;2023-07-09T03:33:07;95976.69;;;14.80;100.00
20624;BME280;10471;42.736;23.346;2023-07-09T03:35:33;95975.09;;;14.79;100.00
20624;BME280;10471;42.736;23.346;2023-07-09T03:38:00;95970.34;;;14.76;100.00
20624;BME280;10471;42.736;23.346;2023-07-09T03:40:25;95970.13;;;14.73;100.00
20624;BME280;10471;42.736;23.346;2023-07-09T03:42:51;95977.31;;;14.72;100.00
20624;BME280;10471;42.736;23.346;2023-07-09T03:45:16;95978.38;;;14.71;100.00
20624;BME280;10471;42.736;23.346;2023-07-09T03:47:41;95972.00;;;14.72;100.00
20624;BME280;10471;42.736;23.346;2023-07-09T03:50:08;95983.69;;;14.71;100.00
20624;BME280;10471;42.736;23.346;2023-07-09T03:52:35;95978.59;;;14.75;100.00
20624;BME280;10471;42.736;23.346;2023-07-09T03:55:00;95982.53;;;14.77;100.00
20624;BME280;10471;42.736;23.346;2023-07-09T03:57:28;95984.13;;;14.78;100.00
20624;BME280;10471;42.736;23.346;2023-07-09T03:59:54;95984.50;;;14.90;100.00
20624;BME280;10471;42.736;23.346;2023-07-09T04:02:19;95987.63;;;14.92;100.00
20624;BME280;10471;42.736;23.346;2023-07-09T04:04:44;95995.06;;;14.95;100.00
20624;BME280;10471;42.736;23.346;2023-07-09T04:07:10;95990.16;;;15.02;100.00
20624;BME280;10471;42.736;23.346;2023-07-09T04:09:35;95995.31;;;15.12;100.00
20624;BME280;10471;42.736;23.346;2023-07-09T04:12:00;96003.50;;;15.15;100.00
20624;BME280;10471;42.736;23.346;2023-07-09T04:14:29;96005.25;;;15.25;100.00
20624;BME280;10471;42.736;23.346;2023-07-09T04:16:54;96005.09;;;15.35;100.00
20624;BME280;10471;42.736;23.346;2023-07-09T04:19:19;96010.25;;;15.45;100.00
20624;BME280;10471;42.736;23.346;2023-07-09T04:21:45;96011.69;;;15.56;100.00
20624;BME280;10471;42.736;23.346;2023-07-09T04:24:10;96009.38;;;15.68;100.00
20624;BME280;10471;42.736;23.346;2023-07-09T04:26:36;96014.69;;;15.68;100.00
20624;BME280;10471;42.736;23.346;2023-07-09T04:29:04;96017.25;;;15.73;100.00
20624;BME280;10471;42.736;23.346;2023-07-09T04:31:30;96007.84;;;15.80;100.00
20624;BME280;10471;42.736;23.346;2023-07-09T04:33:55;96016.41;;;15.90;100.00
20624;BME280;10471;42.736;23.346;2023-07-09T04:36:21;96025.78;;;16.01;100.00
20624;BME280;10471;42.736;23.346;2023-07-09T04:38:46;96012.41;;;16.06;100.00
20624;BME280;10471;42.736;23.346;2023-07-09T04:41:11;96026.34;;;16.17;100.00
20624;BME280;10471;42.736;23.346;2023-07-09T04:43:37;96019.25;;;16.26;100.00
20624;BME280;10471;42.736;23.346;2023-07-09T04:46:02;96019.88;;;16.36;100.00
20624;BME280;10471;42.736;23.346;2023-07-09T04:48:27;96014.38;;;16.46;100.00
20624;BME280;10471;42.736;23.346;2023-07-09T04:50:53;96013.88;;;16.57;100.00
20624;BME280;10471;42.736;23.346;2023-07-09T04:53:18;96010.03;;;16.77;100.00
20624;BME280;10471;42.736;23.346;2023-07-09T04:55:44;96016.63;;;16.93;100.00
20624;BME280;10471;42.736;23.346;2023-07-09T04:58:09;96023.28;;;17.04;100.00
20624;BME280;10471;42.736;23.346;2023-07-09T05:00:34;96016.75;;;17.09;100.00
20624;BME280;10471;42.736;23.346;2023-07-09T05:03:00;96024.41;;;17.24;100.00
20624;BME280;10471;42.736;23.346;2023-07-09T05:05:25;96018.41;;;17.32;100.00
20624;BME280;10471;42.736;23.346;2023-07-09T05:07:50;96020.34;;;17.40;100.00
20624;BME280;10471;42.736;23.346;2023-07-09T05:10:16;96024.66;;;17.50;100.00
20624;BME280;10471;42.736;23.346;2023-07-09T05:12:53;96025.13;;;17.65;100.00
20624;BME280;10471;42.736;23.346;2023-07-09T05:15:21;96033.16;;;17.73;100.00
20624;BME280;10471;42.736;23.346;2023-07-09T05:17:46;96026.50;;;17.84;100.00
20624;BME280;10471;42.736;23.346;2023-07-09T05:20:13;96035.03;;;17.95;100.00
20624;BME280;10471;42.736;23.346;2023-07-09T05:22:39;96032.63;;;18.07;100.00
20624;BME280;10471;42.736;23.346;2023-07-09T05:25:04;96038.06;;;18.24;100.00
20624;BME280;10471;42.736;23.346;2023-07-09T05:27:30;96032.59;;;18.29;100.00
20624;BME280;10471;42.736;23.346;2023-07-09T05:29:55;96028.69;;;18.35;100.00
20624;BME280;10471;42.736;23.346;2023-07-09T05:32:21;96032.38;;;18.47;100.00
20624;BME280;10471;42.736;23.346;2023-07-09T05:34:46;96023.31;;;18.56;100.00
20624;BME280;10471;42.736;23.346;2023-07-09T05:37:11;96026.38;;;18.72;100.00
20624;BME280;10471;42.736;23.346;2023-07-09T05:39:37;96016.03;;;18.87;100.00
20624;BME280;10471;42.736;23.346;2023-07-09T05:42:02;96025.31;;;18.98;100.00
20624;BME280;10471;42.736;23.346;2023-07-09T05:44:28;96018.09;;;18.99;100.00
20624;BME280;10471;42.736;23.346;2023-07-09T05:46:53;96030.13;;;19.26;100.00
20624;BME280;10471;42.736;23.346;2023-07-09T05:49:18;96023.81;;;19.39;100.00
20624;BME280;10471;42.736;23.346;2023-07-09T05:51:44;96029.16;;;19.39;100.00
20624;BME280;10471;42.736;23.346;2023-07-09T05:54:09;96034.53;;;19.48;100.00
20624;BME280;10471;42.736;23.346;2023-07-09T05:56:35;96017.88;;;19.59;100.00
20624;BME280;10471;42.736;23.346;2023-07-09T05:59:00;96027.16;;;19.62;100.00
20624;BME280;10471;42.736;23.346;2023-07-09T06:01:25;96025.25;;;19.71;100.00
20624;BME280;10471;42.736;23.346;2023-07-09T06:03:52;96024.44;;;19.87;100.00
20624;BME280;10471;42.736;23.346;2023-07-09T06:06:19;96031.72;;;20.03;100.00
20624;BME280;10471;42.736;23.346;2023-07-09T06:08:45;96031.53;;;20.08;100.00
20624;BME280;10471;42.736;23.346;2023-07-09T06:11:12;96032.78;;;20.19;100.00
20624;BME280;10471;42.736;23.346;2023-07-09T06:13:38;96028.50;;;20.27;100.00
20624;BME280;10471;42.736;23.346;2023-07-09T06:16:03;96027.72;;;20.26;100.00
20624;BME280;10471;42.736;23.346;2023-07-09T06:18:30;96028.00;;;20.33;100.00
20624;BME280;10471;42.736;23.346;2023-07-09T06:21:00;96027.88;;;20.30;100.00
20624;BME280;10471;42.736;23.346;2023-07-09T06:23:25;96022.31;;;20.43;100.00
20624;BME280;10471;42.736;23.346;2023-07-09T06:25:51;96028.69;;;20.67;100.00
20624;BME280;10471;42.736;23.346;2023-07-09T06:28:20;96014.63;;;20.79;100.00
20624;BME280;10471;42.736;23.346;2023-07-09T06:30:46;96023.28;;;20.84;100.00
20624;BME280;10471;42.736;23.346;2023-07-09T06:33:13;96025.78;;;20.89;100.00
20624;BME280;10471;42.736;23.346;2023-07-09T06:35:39;96011.66;;;21.01;100.00
20624;BME280;10471;42.736;23.346;2023-07-09T06:38:10;96021.53;;;20.88;100.00
20624;BME280;10471;42.736;23.346;2023-07-09T06:40:36;96009.75;;;21.01;100.00
20624;BME280;10471;42.736;23.346;2023-07-09T06:43:01;96010.91;;;21.20;100.00
20624;BME280;10471;42.736;23.346;2023-07-09T06:45:26;96008.88;;;21.38;100.00
20624;BME280;10471;42.736;23.346;2023-07-09T06:47:52;96010.13;;;21.40;100.00
20624;BME280;10471;42.736;23.346;2023-07-09T06:50:17;96021.44;;;21.54;98.45
20624;BME280;10471;42.736;23.346;2023-07-09T06:52:42;96011.28;;;21.80;95.55
20624;BME280;10471;42.736;23.346;2023-07-09T06:55:08;96003.44;;;21.87;98.00
20624;BME280;10471;42.736;23.346;2023-07-09T06:57:34;96010.66;;;21.95;95.92
20624;BME280;10471;42.736;23.346;2023-07-09T06:59:59;96008.53;;;22.00;92.21
20624;BME280;10471;42.736;23.346;2023-07-09T07:02:24;96009.56;;;22.08;90.97
20624;BME280;10471;42.736;23.346;2023-07-09T07:04:50;96006.88;;;21.96;92.47
20624;BME280;10471;42.736;23.346;2023-07-09T07:07:15;96008.66;;;22.04;88.49
20624;BME280;10471;42.736;23.346;2023-07-09T07:09:41;96013.19;;;22.24;87.78
20624;BME280;10471;42.736;23.346;2023-07-09T07:12:07;96008.16;;;22.22;85.74
20624;BME280;10471;42.736;23.346;2023-07-09T07:14:32;96006.19;;;22.31;90.50
20624;BME280;10471;42.736;23.346;2023-07-09T07:16:58;96005.84;;;22.33;88.80
20624;BME280;10471;42.736;23.346;2023-07-09T07:19:23;96004.41;;;22.35;88.26
20624;BME280;10471;42.736;23.346;2023-07-09T07:21:49;96001.66;;;22.55;91.82
20624;BME280;10471;42.736;23.346;2023-07-09T07:24:14;95996.94;;;22.64;88.96
20624;BME280;10471;42.736;23.346;2023-07-09T07:26:40;95990.56;;;22.69;86.65
20624;BME280;10471;42.736;23.346;2023-07-09T07:29:05;95992.25;;;22.85;87.49
20624;BME280;10471;42.736;23.346;2023-07-09T07:31:30;95991.13;;;22.86;82.56
20624;BME280;10471;42.736;23.346;2023-07-09T07:33:56;95988.91;;;22.88;80.03
20624;BME280;10471;42.736;23.346;2023-07-09T07:36:21;95986.19;;;23.12;85.81
20624;BME280;10471;42.736;23.346;2023-07-09T07:38:46;95985.75;;;23.22;77.13
20624;BME280;10471;42.736;23.346;2023-07-09T07:41:12;95985.06;;;23.25;77.53
20624;BME280;10471;42.736;23.346;2023-07-09T07:43:37;95977.91;;;23.17;76.53
20624;BME280;10471;42.736;23.346;2023-07-09T07:46:03;95981.69;;;23.28;81.01
20624;BME280;10471;42.736;23.346;2023-07-09T07:48:28;95981.25;;;23.26;77.75
20624;BME280;10471;42.736;23.346;2023-07-09T07:51:01;95982.16;;;23.30;80.07
20624;BME280;10471;42.736;23.346;2023-07-09T07:53:27;95976.59;;;23.50;71.16
20624;BME280;10471;42.736;23.346;2023-07-09T07:55:55;95974.88;;;23.58;76.13
20624;BME280;10471;42.736;23.346;2023-07-09T07:58:21;95981.16;;;23.62;70.62
20624;BME280;10471;42.736;23.346;2023-07-09T08:00:47;95980.94;;;23.67;66.16
20624;BME280;10471;42.736;23.346;2023-07-09T08:03:12;95977.31;;;23.75;64.50
20624;BME280;10471;42.736;23.346;2023-07-09T08:05:37;95974.47;;;23.83;67.95
20624;BME280;10471;42.736;23.346;2023-07-09T08:08:03;95976.56;;;23.89;60.64
20624;BME280;10471;42.736;23.346;2023-07-09T08:10:29;95984.75;;;23.93;63.61
20624;BME280;10471;42.736;23.346;2023-07-09T08:12:54;95976.97;;;24.03;66.85
20624;BME280;10471;42.736;23.346;2023-07-09T08:15:22;95976.56;;;23.89;66.58
20624;BME280;10471;42.736;23.346;2023-07-09T08:17:48;95975.81;;;24.04;68.33
20624;BME280;10471;42.736;23.346;2023-07-09T08:20:13;95975.50;;;24.06;66.53
20624;BME280;10471;42.736;23.346;2023-07-09T08:22:38;95980.97;;;24.09;67.88
20624;BME280;10471;42.736;23.346;2023-07-09T08:25:04;95976.91;;;24.15;64.66
20624;BME280;10471;42.736;23.346;2023-07-09T08:27:29;95967.13;;;23.95;67.43
20624;BME280;10471;42.736;23.346;2023-07-09T08:29:55;95963.59;;;23.79;64.88
20624;BME280;10471;42.736;23.346;2023-07-09T08:32:20;95963.59;;;23.79;63.34
20624;BME280;10471;42.736;23.346;2023-07-09T08:34:45;95968.69;;;23.96;67.09
20624;BME280;10471;42.736;23.346;2023-07-09T08:37:11;95962.66;;;24.15;68.88
20624;BME280;10471;42.736;23.346;2023-07-09T08:39:36;95968.31;;;24.25;67.90
20624;BME280;10471;42.736;23.346;2023-07-09T08:42:06;95962.59;;;24.27;69.46
20624;BME280;10471;42.736;23.346;2023-07-09T08:50:14;95953.44;;;24.31;68.85
20624;BME280;10471;42.736;23.346;2023-07-09T08:52:43;95964.78;;;24.52;70.35
20624;BME280;10471;42.736;23.346;2023-07-09T08:55:13;95961.47;;;24.74;68.03
20624;BME280;10471;42.736;23.346;2023-07-09T08:57:48;95957.75;;;24.78;65.71
20624;BME280;10471;42.736;23.346;2023-07-09T09:00:28;95963.84;;;24.60;62.16
20624;BME280;10471;42.736;23.346;2023-07-09T09:02:58;95963.06;;;24.75;63.19
20624;BME280;10471;42.736;23.346;2023-07-09T09:05:24;95966.28;;;24.65;61.19
20624;BME280;10471;42.736;23.346;2023-07-09T09:08:15;95969.47;;;24.86;63.43
20624;BME280;10471;42.736;23.346;2023-07-09T09:10:47;95960.84;;;25.11;70.22
20624;BME280;10471;42.736;23.346;2023-07-09T09:13:17;95960.88;;;25.30;62.60
20624;BME280;10471;42.736;23.346;2023-07-09T09:15:46;95963.63;;;25.33;61.16
20624;BME280;10471;42.736;23.346;2023-07-09T09:18:28;95952.97;;;25.21;58.10
20624;BME280;10471;42.736;23.346;2023-07-09T09:21:32;95958.97;;;25.15;61.70
20624;BME280;10471;42.736;23.346;2023-07-09T09:24:13;95952.53;;;25.19;63.81
20624;BME280;10471;42.736;23.346;2023-07-09T09:26:42;95945.00;;;25.28;58.63
20624;BME280;10471;42.736;23.346;2023-07-09T09:29:11;95957.53;;;25.36;59.43
20624;BME280;10471;42.736;23.346;2023-07-09T09:31:37;95952.31;;;25.43;58.42
20624;BME280;10471;42.736;23.346;2023-07-09T09:34:02;95946.19;;;25.46;61.20
20624;BME280;10471;42.736;23.346;2023-07-09T09:36:27;95946.09;;;25.43;64.96
20624;BME280;10471;42.736;23.346;2023-07-09T09:38:53;95948.88;;;25.65;62.20
20624;BME280;10471;42.736;23.346;2023-07-09T09:41:30;95940.06;;;25.49;61.41
20624;BME280;10471;42.736;23.346;2023-07-09T09:43:56;95941.13;;;25.64;60.04
20624;BME280;10471;42.736;23.346;2023-07-09T09:46:26;95951.25;;;25.67;58.30
20624;BME280;10471;42.736;23.346;2023-07-09T09:48:58;95942.34;;;25.85;59.41
20624;BME280;10471;42.736;23.346;2023-07-09T09:51:24;95940.44;;;25.67;56.60
20624;BME280;10471;42.736;23.346;2023-07-09T09:53:52;95942.34;;;25.85;60.83
20624;BME280;10471;42.736;23.346;2023-07-09T09:56:28;95937.13;;;25.73;56.76
20624;BME280;10471;42.736;23.346;2023-07-09T09:58:56;95943.22;;;25.89;57.48
20624;BME280;10471;42.736;23.346;2023-07-09T10:01:27;95924.72;;;25.91;55.96
20624;BME280;10471;42.736;23.346;2023-07-09T10:03:56;95929.56;;;25.82;58.07
20624;BME280;10471;42.736;23.346;2023-07-09T10:06:46;95935.34;;;25.81;56.91
20624;BME280;10471;42.736;23.346;2023-07-09T10:17:05;95924.13;;;26.01;55.78
20624;BME280;10471;42.736;23.346;2023-07-09T10:19:49;95926.91;;;26.04;55.86
20624;BME280;10471;42.736;23.346;2023-07-09T10:22:40;95934.47;;;26.18;54.58
20624;BME280;10471;42.736;23.346;2023-07-09T10:28:26;95919.22;;;26.73;54.14
20624;BME280;10471;42.736;23.346;2023-07-09T10:40:36;95911.34;;;27.13;49.96
20624;BME280;10471;42.736;23.346;2023-07-09T10:43:04;95903.13;;;27.06;50.79
20624;BME280;10471;42.736;23.346;2023-07-09T10:45:38;95914.13;;;26.68;50.54
20624;BME280;10471;42.736;23.346;2023-07-09T10:48:20;95913.47;;;26.52;48.96
20624;BME280;10471;42.736;23.346;2023-07-09T10:50:52;95907.22;;;26.48;49.14
20624;BME280;10471;42.736;23.346;2023-07-09T10:53:41;95904.03;;;26.91;49.11
20624;BME280;10471;42.736;23.346;2023-07-09T10:56:20;95904.78;;;26.88;46.96
20624;BME280;10471;42.736;23.346;2023-07-09T11:01:41;95893.25;;;27.50;49.10
20624;BME280;10471;42.736;23.346;2023-07-09T11:04:18;95908.00;;;27.23;46.69
20624;BME280;10471;42.736;23.346;2023-07-09T11:06:48;95901.50;;;27.02;48.05
20624;BME280;10471;42.736;23.346;2023-07-09T11:09:27;95892.16;;;26.73;47.73
20624;BME280;10471;42.736;23.346;2023-07-09T11:11:57;95901.31;;;26.91;47.14
20624;BME280;10471;42.736;23.346;2023-07-09T11:14:35;95891.63;;;26.90;48.83
20624;BME280;10471;42.736;23.346;2023-07-09T11:17:03;95905.09;;;27.09;48.64
20624;BME280;10471;42.736;23.346;2023-07-09T11:19:29;95903.25;;;27.46;48.49
20624;BME280;10471;42.736;23.346;2023-07-09T11:27:18;95899.44;;;27.80;49.06
20624;BME280;10471;42.736;23.346;2023-07-09T11:29:51;95898.44;;;27.94;48.41
20624;BME280;10471;42.736;23.346;2023-07-09T11:32:26;95895.31;;;28.29;47.47
20624;BME280;10471;42.736;23.346;2023-07-09T11:34:52;95892.53;;;28.22;47.65
20624;BME280;10471;42.736;23.346;2023-07-09T11:37:18;95880.38;;;28.52;48.18
20624;BME280;10471;42.736;23.346;2023-07-09T11:39:46;95887.34;;;28.50;46.18
20624;BME280;10471;42.736;23.346;2023-07-09T11:45:13;95889.56;;;28.37;47.01
20624;BME280;10471;42.736;23.346;2023-07-09T11:47:46;95886.38;;;28.25;45.41
20624;BME280;10471;42.736;23.346;2023-07-09T11:50:28;95880.50;;;28.66;45.70
20624;BME280;10471;42.736;23.346;2023-07-09T11:53:04;95872.94;;;28.89;45.53
20624;BME280;10471;42.736;23.346;2023-07-09T11:55:39;95879.63;;;29.09;44.72
20624;BME280;10471;42.736;23.346;2023-07-09T11:58:07;95876.34;;;28.32;45.50
20624;BME280;10471;42.736;23.346;2023-07-09T12:00:46;95868.94;;;28.76;45.43
20624;BME280;10471;42.736;23.346;2023-07-09T12:03:18;95870.66;;;28.98;45.00
20624;BME280;10471;42.736;23.346;2023-07-09T12:05:50;95880.31;;;28.92;45.83
20624;BME280;10471;42.736;23.346;2023-07-09T12:08:17;95858.16;;;28.83;45.66
20624;BME280;10471;42.736;23.346;2023-07-09T12:10:44;95870.06;;;28.71;45.60
20624;BME280;10471;42.736;23.346;2023-07-09T12:13:11;95877.34;;;28.60;46.03
20624;BME280;10471;42.736;23.346;2023-07-09T12:15:38;95867.94;;;28.48;45.22
20624;BME280;10471;42.736;23.346;2023-07-09T12:18:11;95862.16;;;29.03;44.75
20624;BME280;10471;42.736;23.346;2023-07-09T12:20:37;95859.28;;;29.42;45.31
20624;BME280;10471;42.736;23.346;2023-07-09T12:23:22;95861.03;;;30.13;43.47
20624;BME280;10471;42.736;23.346;2023-07-09T12:25:52;95859.78;;;29.83;43.48
20624;BME280;10471;42.736;23.346;2023-07-09T12:28:19;95860.84;;;29.50;44.36
20624;BME280;10471;42.736;23.346;2023-07-09T12:30:48;95861.69;;;29.75;46.43
20624;BME280;10471;42.736;23.346;2023-07-09T12:33:18;95854.03;;;30.05;44.68
20624;BME280;10471;42.736;23.346;2023-07-09T12:35:44;95856.56;;;29.49;44.28
20624;BME280;10471;42.736;23.346;2023-07-09T12:38:21;95854.66;;;28.86;44.92
20624;BME280;10471;42.736;23.346;2023-07-09T12:40:48;95855.25;;;29.19;45.34
20624;BME280;10471;42.736;23.346;2023-07-09T12:43:17;95855.19;;;29.09;45.26
20624;BME280;10471;42.736;23.346;2023-07-09T12:45:45;95853.72;;;29.21;46.08
20624;BME280;10471;42.736;23.346;2023-07-09T12:48:12;95850.06;;;28.97;44.39
20624;BME280;10471;42.736;23.346;2023-07-09T12:50:39;95847.16;;;29.29;44.53
20624;BME280;10471;42.736;23.346;2023-07-09T12:53:15;95849.94;;;29.36;44.67
20624;BME280;10471;42.736;23.346;2023-07-09T12:55:42;95841.38;;;29.34;44.03
20624;BME280;10471;42.736;23.346;2023-07-09T12:58:20;95843.59;;;29.12;45.44
20624;BME280;10471;42.736;23.346;2023-07-09T13:00:49;95849.19;;;29.46;45.38
20624;BME280;10471;42.736;23.346;2023-07-09T13:03:19;95845.31;;;29.54;43.45
20624;BME280;10471;42.736;23.346;2023-07-09T13:06:06;95840.25;;;29.42;44.57
20624;BME280;10471;42.736;23.346;2023-07-09T13:08:56;95840.72;;;29.72;44.31
20624;BME280;10471;42.736;23.346;2023-07-09T13:11:22;95845.38;;;29.68;44.21
20624;BME280;10471;42.736;23.346;2023-07-09T13:14:14;95841.06;;;29.60;44.15
20624;BME280;10471;42.736;23.346;2023-07-09T13:16:41;95839.25;;;29.99;43.91
20624;BME280;10471;42.736;23.346;2023-07-09T13:19:06;95831.88;;;30.06;45.06
20624;BME280;10471;42.736;23.346;2023-07-09T13:21:31;95842.38;;;30.15;45.51
20624;BME280;10471;42.736;23.346;2023-07-09T13:23:57;95833.44;;;30.42;42.98
20624;BME280;10471;42.736;23.346;2023-07-09T13:26:23;95843.16;;;30.12;44.40
20624;BME280;10471;42.736;23.346;2023-07-09T13:28:49;95836.13;;;29.93;45.43
20624;BME280;10471;42.736;23.346;2023-07-09T13:31:18;95840.69;;;29.65;44.79